createdAt,value
2023-01-26T00:00:15.662Z,179.13
2023-01-26T00:02:44.167Z,169.80
2023-01-26T00:05:12.531Z,167.73
2023-01-26T00:07:45.669Z,174.50
2023-01-26T00:10:15.136Z,170.80
2023-01-26T00:12:43.712Z,167.80
2023-01-26T00:15:13.577Z,175.77
2023-01-26T00:17:42.178Z,170.33
2023-01-26T00:20:12.599Z,167.13
2023-01-26T00:22:41.101Z,168.00
2023-01-26T00:25:10.310Z,160.10
2023-01-26T00:27:38.749Z,175.33
2023-01-26T00:30:08.257Z,177.07
2023-01-26T00:32:38.517Z,169.83
2023-01-26T00:35:07.682Z,175.10
2023-01-26T00:37:37.921Z,172.57
2023-01-26T00:40:07.060Z,167.80
2023-01-26T00:42:35.655Z,170.53
2023-01-26T00:45:04.678Z,166.67
2023-01-26T00:47:33.744Z,161.77
2023-01-26T00:50:03.482Z,153.33
2023-01-26T00:52:31.930Z,147.03
2023-01-26T00:55:00.417Z,163.20
2023-01-26T00:57:28.841Z,167.10
2023-01-26T00:59:58.423Z,175.27
2023-01-26T01:02:27.707Z,162.90
2023-01-26T01:04:56.640Z,169.53
2023-01-26T01:17:57.788Z,162.93
2023-01-26T01:20:26.536Z,164.23
2023-01-26T01:22:55.622Z,158.70
2023-01-26T01:25:23.987Z,148.10
2023-01-26T01:27:52.441Z,146.60
2023-01-26T01:30:21.125Z,148.40
2023-01-26T01:32:51.753Z,167.67
2023-01-26T01:35:21.550Z,157.20
2023-01-26T01:37:50.363Z,159.60
2023-01-26T01:40:18.827Z,155.77
2023-01-26T01:42:50.959Z,154.50
2023-01-26T01:45:42.309Z,139.23
2023-01-26T01:48:19.071Z,158.33
2023-01-26T01:50:50.443Z,155.60
2023-01-26T01:53:25.785Z,145.37
2023-01-26T01:55:58.245Z,146.67
2023-01-26T01:58:28.868Z,156.30
2023-01-26T02:00:59.147Z,152.53
2023-01-26T02:03:29.924Z,156.87
2023-01-26T02:06:04.544Z,161.37
2023-01-26T02:08:37.655Z,162.23
2023-01-26T02:11:11.279Z,155.30
2023-01-26T02:13:42.177Z,179.10
2023-01-26T02:16:10.510Z,180.63
2023-01-26T02:18:39.987Z,169.47
2023-01-26T02:21:12.417Z,174.00
2023-01-26T02:23:54.601Z,198.73
2023-01-26T02:26:28.349Z,171.43
2023-01-26T02:28:57.065Z,172.10
2023-01-26T02:31:26.625Z,175.13
2023-01-26T02:33:56.787Z,167.53
2023-01-26T02:36:27.881Z,166.23
2023-01-26T02:39:08.048Z,182.30
2023-01-26T02:41:58.396Z,170.70
2023-01-26T02:44:28.005Z,167.57
2023-01-26T02:46:56.685Z,157.37
2023-01-26T02:49:57.589Z,162.80
2023-01-26T02:52:28.749Z,169.97
2023-01-26T02:55:25.208Z,159.70
2023-01-26T02:57:57.576Z,157.87
2023-01-26T03:00:27.840Z,153.23
2023-01-26T03:02:59.391Z,168.23
2023-01-26T03:05:27.949Z,157.80
2023-01-26T03:07:57.416Z,175.67
2023-01-26T03:10:31.832Z,169.50
2023-01-26T03:13:01.725Z,173.40
2023-01-26T03:15:43.464Z,199.60
2023-01-26T03:18:29.796Z,189.87
2023-01-26T03:21:18.150Z,192.73
2023-01-26T03:24:06.143Z,193.97
2023-01-26T03:26:53.105Z,198.90
2023-01-26T03:29:23.107Z,185.60
2023-01-26T03:31:52.801Z,198.00
2023-01-26T03:34:21.624Z,196.53
2023-01-26T03:36:50.618Z,200.33
2023-01-26T03:39:38.509Z,196.23
2023-01-26T03:42:25.558Z,185.77
2023-01-26T03:45:14.074Z,199.10
2023-01-26T03:48:02.086Z,166.40
2023-01-26T03:50:49.193Z,165.13
2023-01-26T03:53:37.523Z,173.03
2023-01-26T03:56:22.200Z,178.87
2023-01-26T03:58:55.008Z,164.83
2023-01-26T04:01:28.264Z,163.77
2023-01-26T04:04:17.462Z,172.80
2023-01-26T04:07:06.932Z,185.67
2023-01-26T04:09:39.595Z,174.17
2023-01-26T04:12:10.461Z,179.97
2023-01-26T04:15:04.087Z,159.00
2023-01-26T04:17:52.123Z,166.07
2023-01-26T04:20:39.230Z,155.57
2023-01-26T04:23:07.846Z,155.87
2023-01-26T04:25:36.598Z,152.13
2023-01-26T04:28:05.279Z,161.67
2023-01-26T04:30:34.560Z,164.23
2023-01-26T04:33:05.256Z,165.07
2023-01-26T04:35:34.516Z,171.53
2023-01-26T04:38:03.085Z,171.30
2023-01-26T04:40:31.706Z,149.03
2023-01-26T04:43:00.193Z,143.23
2023-01-26T04:45:28.634Z,139.40
2023-01-26T04:47:57.161Z,134.63
2023-01-26T04:50:26.929Z,135.23
2023-01-26T04:52:55.395Z,140.63
2023-01-26T04:55:23.862Z,150.90
2023-01-26T04:57:53.482Z,145.93
2023-01-26T05:00:22.578Z,157.63
2023-01-26T05:02:52.793Z,162.83
2023-01-26T05:05:21.365Z,152.57
2023-01-26T05:07:52.943Z,139.83
2023-01-26T05:10:21.978Z,137.50
2023-01-26T05:13:16.557Z,142.30
2023-01-26T05:16:03.992Z,135.30
2023-01-26T05:18:50.995Z,149.50
2023-01-26T05:21:32.452Z,160.03
2023-01-26T05:24:02.409Z,144.07
2023-01-26T05:27:09.362Z,134.87
2023-01-26T05:29:38.035Z,144.13
2023-01-26T05:32:07.214Z,149.40
2023-01-26T05:34:35.663Z,146.07
2023-01-26T05:37:05.296Z,143.23
2023-01-26T05:39:36.296Z,145.13
2023-01-26T05:42:07.124Z,138.40
2023-01-26T05:44:58.550Z,151.03
2023-01-26T05:47:27.264Z,150.90
2023-01-26T05:49:55.709Z,143.47
2023-01-26T05:52:28.393Z,139.53
2023-01-26T05:54:58.209Z,140.10
2023-01-26T05:57:26.734Z,130.63
2023-01-26T05:59:59.332Z,135.87
2023-01-26T06:02:28.438Z,136.97
2023-01-26T06:04:57.122Z,140.40
2023-01-26T06:07:26.413Z,134.80
2023-01-26T06:10:13.016Z,130.90
2023-01-26T06:12:59.419Z,126.97
2023-01-26T06:15:47.940Z,126.57
2023-01-26T06:18:16.560Z,123.53
2023-01-26T06:20:51.827Z,126.47
2023-01-26T06:23:20.264Z,127.40
2023-01-26T06:25:51.872Z,128.07
2023-01-26T06:28:21.133Z,137.60
2023-01-26T06:30:49.755Z,118.90
2023-01-26T06:33:18.423Z,139.40
2023-01-26T06:35:47.511Z,121.57
2023-01-26T06:38:16.217Z,128.73
2023-01-26T06:40:45.773Z,129.07
2023-01-26T06:43:15.923Z,127.60
2023-01-26T06:45:44.656Z,123.80
2023-01-26T06:48:13.285Z,112.77
2023-01-26T06:50:41.721Z,111.83
2023-01-26T06:53:27.520Z,119.40
2023-01-26T06:56:14.826Z,114.43
2023-01-26T06:59:09.900Z,120.57
2023-01-26T07:01:57.089Z,120.60
2023-01-26T07:04:27.297Z,123.53
2023-01-26T07:06:55.678Z,117.53
2023-01-26T07:09:24.124Z,119.37
2023-01-26T07:11:52.445Z,119.77
2023-01-26T07:14:22.377Z,107.90
2023-01-26T07:16:50.764Z,115.93
2023-01-26T07:19:19.318Z,117.77
2023-01-26T07:21:48.821Z,123.10
2023-01-26T07:24:17.186Z,115.73
2023-01-26T07:26:45.623Z,121.90
2023-01-26T07:29:14.109Z,119.20
2023-01-26T07:31:44.598Z,111.97
2023-01-26T07:34:13.674Z,116.47
2023-01-26T07:36:42.179Z,115.63
2023-01-26T07:39:10.566Z,115.73
2023-01-26T07:41:38.997Z,119.60
2023-01-26T07:44:26.412Z,119.57
2023-01-26T07:46:56.283Z,119.10
2023-01-26T07:49:25.833Z,114.27
2023-01-26T07:51:54.442Z,107.90
2023-01-26T07:54:22.848Z,129.83
2023-01-26T07:56:53.039Z,119.20
2023-01-26T07:59:21.607Z,107.77
2023-01-26T08:01:50.751Z,114.60
2023-01-26T08:04:20.611Z,121.07
2023-01-26T08:06:49.874Z,118.67
2023-01-26T08:09:18.522Z,120.70
2023-01-26T08:11:46.954Z,126.40
2023-01-26T08:14:15.584Z,117.30
2023-01-26T08:16:45.608Z,122.47
2023-01-26T08:19:14.178Z,135.10
2023-01-26T08:21:44.108Z,117.27
2023-01-26T08:24:13.162Z,125.70
2023-01-26T08:26:41.530Z,107.90
2023-01-26T08:29:09.967Z,114.20
2023-01-26T08:31:39.273Z,120.33
2023-01-26T08:34:07.743Z,112.93
2023-01-26T08:36:36.083Z,106.80
2023-01-26T08:39:06.524Z,118.80
2023-01-26T08:41:35.015Z,115.33
2023-01-26T08:44:03.706Z,97.43
2023-01-26T08:46:32.181Z,109.37
2023-01-26T08:49:00.688Z,97.67
2023-01-26T08:51:29.218Z,97.27
2023-01-26T08:53:57.743Z,94.97
2023-01-26T08:56:27.656Z,88.70
2023-01-26T08:58:56.019Z,87.23
2023-01-26T09:01:24.596Z,72.27
2023-01-26T09:03:53.648Z,69.60
2023-01-26T09:06:22.256Z,73.60
2023-01-26T09:08:50.750Z,55.93
2023-01-26T09:11:19.323Z,61.77
2023-01-26T09:13:56.553Z,60.93
2023-01-26T09:16:26.125Z,60.73
2023-01-26T09:18:55.162Z,62.13
2023-01-26T09:21:24.786Z,60.40
2023-01-26T09:23:53.323Z,56.97
2023-01-26T09:26:21.869Z,59.03
2023-01-26T09:28:53.277Z,54.63
2023-01-26T09:31:22.209Z,54.80
2023-01-26T09:33:50.897Z,55.23
2023-01-26T09:36:19.904Z,52.37
2023-01-26T09:38:48.482Z,52.73
2023-01-26T09:41:35.474Z,51.23
2023-01-26T09:44:09.347Z,51.40
2023-01-26T09:46:53.213Z,46.27
2023-01-26T09:49:27.043Z,47.10
2023-01-26T09:52:01.576Z,47.13
2023-01-26T09:54:36.611Z,48.50
2023-01-26T09:57:14.922Z,48.83
2023-01-26T09:59:50.082Z,46.77
2023-01-26T10:02:26.970Z,47.20
2023-01-26T10:05:00.714Z,47.13
2023-01-26T10:07:29.966Z,45.00
2023-01-26T10:09:58.532Z,41.73
2023-01-26T10:12:30.787Z,41.77
2023-01-26T10:15:06.257Z,39.97
2023-01-26T10:17:38.712Z,36.87
2023-01-26T10:20:15.205Z,39.97
2023-01-26T10:22:46.380Z,37.70
2023-01-26T10:25:18.165Z,35.77
2023-01-26T10:27:47.427Z,38.90
2023-01-26T10:30:19.589Z,38.67
2023-01-26T10:32:52.050Z,31.63
2023-01-26T10:35:22.660Z,34.93
2023-01-26T10:37:53.139Z,41.53
2023-01-26T10:40:22.260Z,43.17
2023-01-26T10:42:58.830Z,41.70
2023-01-26T10:45:31.378Z,46.03
2023-01-26T10:48:15.518Z,54.67
2023-01-26T10:50:44.208Z,43.90
2023-01-26T10:53:19.130Z,42.80
2023-01-26T10:56:00.601Z,53.53
2023-01-26T10:58:57.400Z,54.93
2023-01-26T11:01:28.476Z,68.93
2023-01-26T11:04:05.272Z,52.40
2023-01-26T11:06:35.567Z,57.23
2023-01-26T11:09:12.615Z,70.23
2023-01-26T11:11:41.188Z,70.93
2023-01-26T11:14:14.491Z,86.13
2023-01-26T11:16:51.442Z,70.47
2023-01-26T11:19:39.512Z,77.03
2023-01-26T11:22:13.131Z,72.63
2023-01-26T11:24:49.516Z,84.20
2023-01-26T11:27:45.536Z,84.93
2023-01-26T11:30:44.291Z,67.07
2023-01-26T11:33:21.966Z,71.90
2023-01-26T11:35:55.094Z,83.60
2023-01-26T11:38:32.953Z,87.07
2023-01-26T11:41:14.719Z,83.47
2023-01-26T11:44:03.276Z,68.23
2023-01-26T11:47:16.428Z,85.03
2023-01-26T11:50:04.063Z,83.10
2023-01-26T11:52:43.481Z,74.97
2023-01-26T11:55:29.471Z,80.93
2023-01-26T11:58:22.611Z,70.27
2023-01-26T12:00:55.894Z,68.83
2023-01-26T12:03:31.029Z,82.73
2023-01-26T12:06:06.928Z,82.30
2023-01-26T12:08:41.129Z,79.87
2023-01-26T12:11:23.651Z,82.67
2023-01-26T12:14:13.670Z,77.13
2023-01-26T12:16:52.418Z,84.47
2023-01-26T12:19:38.114Z,93.40
2023-01-26T12:22:16.169Z,84.30
2023-01-26T12:25:17.700Z,89.80
2023-01-26T12:27:45.550Z,87.20
2023-01-26T12:30:28.368Z,97.43
2023-01-26T12:32:57.284Z,89.50
2023-01-26T12:35:40.398Z,107.67
2023-01-26T12:38:18.355Z,109.60
2023-01-26T12:40:59.405Z,109.87
2023-01-26T12:43:44.055Z,102.73
2023-01-26T12:46:15.257Z,100.00
2023-01-26T12:48:47.627Z,115.17
2023-01-26T12:51:21.683Z,112.53
2023-01-26T12:53:59.076Z,115.53
2023-01-26T12:56:33.101Z,114.37
2023-01-26T12:59:39.157Z,112.47
2023-01-26T13:02:20.054Z,109.57
2023-01-26T13:04:49.396Z,115.40
2023-01-26T13:07:34.204Z,137.97
2023-01-26T13:10:41.865Z,133.87
2023-01-26T13:13:29.166Z,133.57
2023-01-26T13:16:37.303Z,123.27
2023-01-26T13:19:05.758Z,118.07
2023-01-26T13:21:45.453Z,147.33
2023-01-26T13:24:46.927Z,121.23
2023-01-26T13:27:35.297Z,132.63
2023-01-26T13:30:03.868Z,131.67
2023-01-26T13:33:04.117Z,131.33
2023-01-26T13:35:33.086Z,123.90
2023-01-26T13:38:11.725Z,150.03
2023-01-26T13:40:45.350Z,137.73
2023-01-26T13:43:27.131Z,153.10
2023-01-26T13:46:07.963Z,135.10
2023-01-26T13:48:55.259Z,155.27
2023-01-26T13:51:27.585Z,141.27
2023-01-26T13:54:02.694Z,144.60
2023-01-26T13:56:33.913Z,148.23
2023-01-26T13:59:12.717Z,148.17
2023-01-26T14:01:46.488Z,125.73
2023-01-26T14:04:17.278Z,130.13
2023-01-26T14:06:50.731Z,116.93
2023-01-26T14:09:19.649Z,109.17
2023-01-26T14:11:57.022Z,116.10
2023-01-26T14:14:30.457Z,124.43
2023-01-26T14:16:59.937Z,114.63
2023-01-26T14:19:30.144Z,104.03
2023-01-26T14:22:01.405Z,96.87
2023-01-26T14:24:35.015Z,96.67
2023-01-26T14:27:04.561Z,115.17
2023-01-26T14:29:40.463Z,92.27
2023-01-26T14:32:17.006Z,92.53
2023-01-26T14:34:54.374Z,103.43
2023-01-26T14:37:22.953Z,85.57
2023-01-26T14:40:10.716Z,72.97
2023-01-26T14:42:41.382Z,78.63
2023-01-26T14:45:15.370Z,74.90
2023-01-26T14:47:45.553Z,84.20
2023-01-26T14:50:20.703Z,75.77
2023-01-26T14:52:49.278Z,83.97
2023-01-26T14:55:23.425Z,77.20
2023-01-26T14:57:52.921Z,71.80
2023-01-26T15:00:27.004Z,68.73
2023-01-26T15:02:57.022Z,75.50
2023-01-26T15:05:33.804Z,65.73
2023-01-26T15:08:04.211Z,69.57
2023-01-26T15:10:37.314Z,62.77
2023-01-26T15:13:09.504Z,64.47
2023-01-26T15:15:41.300Z,73.27
2023-01-26T15:18:21.199Z,58.87
2023-01-26T15:21:00.618Z,67.33
2023-01-26T15:23:32.077Z,66.00
2023-01-26T15:26:08.802Z,58.93
2023-01-26T15:28:38.712Z,65.23
2023-01-26T15:31:09.464Z,74.10
2023-01-26T15:33:47.240Z,68.70
2023-01-26T15:36:33.401Z,71.63
2023-01-26T15:39:06.065Z,68.20
2023-01-26T15:41:34.694Z,72.83
2023-01-26T15:44:03.119Z,64.73
2023-01-26T15:46:33.012Z,82.80
2023-01-26T15:49:01.492Z,82.73
2023-01-26T15:51:29.962Z,67.23
2023-01-26T15:53:58.493Z,83.17
2023-01-26T15:56:27.156Z,81.53
2023-01-26T15:58:55.730Z,83.47
2023-01-26T16:01:24.787Z,77.03
2023-01-26T16:03:54.556Z,66.27
2023-01-26T16:06:26.097Z,73.97
2023-01-26T16:08:55.395Z,57.40
2023-01-26T16:11:28.072Z,67.80
2023-01-26T16:14:03.235Z,81.57
2023-01-26T16:16:33.150Z,74.93
2023-01-26T16:19:03.437Z,57.20
2023-01-26T16:21:36.142Z,63.50
2023-01-26T16:24:05.596Z,77.47
2023-01-26T16:26:34.816Z,94.03
2023-01-26T16:29:03.383Z,74.37
2023-01-26T16:31:33.840Z,67.07
2023-01-26T16:34:04.555Z,74.27
2023-01-26T16:36:33.524Z,69.33
2023-01-26T16:39:02.107Z,99.50
2023-01-26T16:41:33.910Z,77.37
2023-01-26T16:44:03.814Z,85.67
2023-01-26T16:46:32.559Z,95.53
2023-01-26T16:49:01.171Z,75.43
2023-01-26T16:51:33.806Z,126.90
2023-01-26T16:54:02.413Z,55.57
2023-01-26T16:56:32.321Z,57.63
2023-01-26T16:59:00.945Z,77.03
2023-01-26T17:01:34.239Z,82.47
2023-01-26T17:04:02.770Z,91.40
2023-01-26T17:06:32.812Z,87.07
2023-01-26T17:09:01.360Z,81.37
2023-01-26T17:11:30.592Z,98.13
2023-01-26T17:13:59.451Z,106.43
2023-01-26T17:16:32.167Z,94.97
2023-01-26T17:19:00.960Z,113.17
2023-01-26T17:21:29.499Z,114.07
2023-01-26T17:24:00.048Z,97.97
2023-01-26T17:26:28.525Z,88.87
2023-01-26T17:28:57.408Z,91.53
2023-01-26T17:31:26.800Z,108.50
2023-01-26T17:33:56.456Z,94.03
2023-01-26T17:36:25.345Z,111.80
2023-01-26T17:38:54.392Z,116.07
2023-01-26T17:41:24.248Z,113.70
2023-01-26T17:43:52.760Z,101.33
2023-01-26T17:46:22.447Z,119.13
2023-01-26T17:48:51.401Z,113.60
2023-01-26T17:51:21.892Z,95.27
2023-01-26T17:53:51.207Z,93.57
2023-01-26T17:56:21.116Z,94.13
2023-01-26T17:58:52.676Z,78.17
2023-01-26T18:01:22.218Z,91.90
2023-01-26T18:03:50.923Z,87.37
2023-01-26T18:06:19.507Z,77.77
2023-01-26T18:08:48.497Z,77.30
2023-01-26T18:11:17.614Z,70.37
2023-01-26T18:13:46.364Z,75.93
2023-01-26T18:16:19.389Z,61.63
2023-01-26T18:18:48.747Z,54.27
2023-01-26T18:21:18.911Z,51.43
2023-01-26T18:23:49.082Z,50.37
2023-01-26T18:26:19.287Z,43.57
2023-01-26T18:28:48.271Z,51.03
2023-01-26T18:31:22.535Z,34.13
2023-01-26T18:33:51.170Z,25.70
2023-01-26T18:36:21.810Z,40.77
2023-01-26T18:38:52.350Z,41.67
2023-01-26T18:41:22.659Z,38.67
2023-01-26T18:43:51.970Z,30.90
2023-01-26T18:46:23.225Z,27.67
2023-01-26T18:48:54.428Z,32.60
2023-01-26T18:51:23.425Z,29.73
2023-01-26T18:53:52.100Z,32.47
2023-01-26T18:56:20.686Z,31.90
2023-01-26T18:58:49.362Z,42.80
2023-01-26T19:01:18.960Z,27.67
2023-01-26T19:03:55.097Z,23.60
2023-01-26T19:06:25.231Z,23.23
2023-01-26T19:08:58.546Z,28.87
2023-01-26T19:11:28.837Z,20.67
2023-01-26T19:13:57.386Z,22.57
2023-01-26T19:16:26.446Z,24.03
2023-01-26T19:18:56.567Z,20.27
2023-01-26T19:21:27.827Z,30.33
2023-01-26T19:23:58.780Z,22.67
2023-01-26T19:26:29.847Z,16.93
2023-01-26T19:28:58.794Z,22.60
2023-01-26T19:31:29.605Z,24.23
2023-01-26T19:34:01.282Z,18.70
2023-01-26T19:36:31.944Z,19.47
2023-01-26T19:39:00.638Z,13.63
2023-01-26T19:41:29.601Z,21.10
2023-01-26T19:43:58.146Z,23.27
2023-01-26T19:46:26.917Z,21.23
2023-01-26T19:48:55.667Z,20.67
2023-01-26T19:51:27.497Z,22.43
2023-01-26T19:53:58.921Z,18.57
2023-01-26T19:56:29.879Z,17.30
2023-01-26T19:58:59.996Z,16.60
2023-01-26T20:01:31.297Z,18.30
2023-01-26T20:04:02.103Z,17.60
2023-01-26T20:06:33.798Z,19.97
2023-01-26T20:09:04.353Z,20.80
2023-01-26T20:11:34.207Z,11.13
2023-01-26T20:14:04.594Z,15.50
2023-01-26T20:16:34.534Z,25.53
2023-01-26T20:19:04.076Z,18.67
2023-01-26T20:21:37.069Z,22.87
2023-01-26T20:24:06.738Z,15.87
2023-01-26T20:26:37.244Z,18.50
2023-01-26T20:29:06.593Z,21.27
2023-01-26T20:31:35.378Z,19.87
2023-01-26T20:34:04.070Z,19.27
2023-01-26T20:36:35.414Z,29.80
2023-01-26T20:39:04.974Z,13.27
2023-01-26T20:41:34.500Z,15.33
2023-01-26T20:44:05.933Z,20.43
2023-01-26T20:46:36.922Z,18.73
2023-01-26T20:49:08.712Z,16.10
2023-01-26T20:51:42.585Z,19.77
2023-01-26T20:54:14.929Z,13.97
2023-01-26T20:56:45.872Z,18.27
2023-01-26T20:59:14.364Z,19.37
2023-01-26T21:01:43.016Z,22.40
2023-01-26T21:04:11.534Z,23.00
2023-01-26T21:06:41.843Z,22.70
2023-01-26T21:09:12.785Z,29.93
2023-01-26T21:11:41.675Z,18.17
2023-01-26T21:14:13.833Z,23.93
2023-01-26T21:16:42.453Z,14.20
2023-01-26T21:19:11.276Z,20.37
2023-01-26T21:21:41.478Z,18.57
2023-01-26T21:24:11.707Z,16.17
2023-01-26T21:26:40.590Z,19.00
2023-01-26T21:29:12.506Z,23.43
2023-01-26T21:31:41.204Z,18.37
2023-01-26T21:34:11.220Z,19.97
2023-01-26T21:36:41.535Z,24.17
2023-01-26T21:39:15.075Z,25.53
2023-01-26T21:41:59.561Z,14.03
2023-01-26T21:44:30.004Z,15.03
2023-01-26T21:47:00.901Z,11.37
2023-01-26T21:49:29.980Z,12.20
2023-01-26T21:52:18.692Z,20.23
2023-01-26T21:54:47.283Z,19.43
2023-01-26T21:57:33.452Z,19.60
2023-01-26T22:00:02.110Z,19.53
2023-01-26T22:02:33.549Z,18.47
2023-01-26T22:05:02.130Z,12.73
2023-01-26T22:07:32.330Z,14.27
2023-01-26T22:10:01.186Z,18.57
2023-01-26T22:12:30.500Z,10.63
2023-01-26T22:14:59.134Z,15.57
2023-01-26T22:17:27.647Z,13.83
2023-01-26T22:19:56.844Z,17.83
2023-01-26T22:22:25.325Z,16.37
2023-01-26T22:24:55.382Z,21.90
2023-01-26T22:27:23.956Z,13.30
2023-01-26T22:29:52.763Z,20.37
2023-01-26T22:32:21.215Z,20.67
2023-01-26T22:34:49.854Z,20.87
2023-01-26T22:37:18.516Z,14.67
2023-01-26T22:39:49.076Z,16.20
2023-01-26T22:42:19.990Z,16.17
2023-01-26T22:44:48.536Z,23.93
2023-01-26T22:47:17.280Z,27.00
2023-01-26T22:49:45.857Z,17.17
2023-01-26T22:52:14.757Z,16.33
2023-01-26T22:54:43.122Z,22.40
2023-01-26T22:57:11.644Z,21.70
2023-01-26T22:59:42.644Z,20.00
2023-01-26T23:02:11.004Z,13.97
2023-01-26T23:04:42.147Z,15.53
2023-01-26T23:07:10.606Z,19.73
2023-01-26T23:09:38.992Z,18.97
2023-01-26T23:12:08.380Z,16.47
2023-01-26T23:14:37.225Z,20.33
2023-01-26T23:17:08.268Z,17.77
2023-01-26T23:19:37.171Z,24.63
2023-01-26T23:22:05.954Z,16.80
2023-01-26T23:24:34.441Z,11.13
2023-01-26T23:27:02.883Z,18.03
2023-01-26T23:29:31.264Z,21.00
2023-01-26T23:31:59.816Z,16.20
2023-01-26T23:34:30.002Z,15.07
2023-01-26T23:36:58.537Z,17.83
2023-01-26T23:39:26.938Z,15.90
2023-01-26T23:41:55.377Z,15.13
2023-01-26T23:44:23.946Z,10.93
2023-01-26T23:46:52.510Z,14.20
2023-01-26T23:49:21.055Z,21.77
2023-01-26T23:51:50.956Z,19.80
2023-01-26T23:54:19.448Z,21.87
2023-01-26T23:56:47.904Z,21.30
2023-01-26T23:59:16.584Z,19.57
